UAE5WT EGPH-OMDB
Flight info
| Callsign | UAE5WT |
|---|---|
| Flight time | N/A |
| Altitude | 35000 |
| Route | TLA Y96 OTBUN DCT NATEB DCT GODOS DCT BERGI DCT DOJOH DCT DODEN DCT NEGIX DCT DINKU M867 XERUM DCT BAVAX DCT RADIZ DCT MODRO DCT DARZA DCT PINDO DCT PAXIS Y707 OBRAN/N0495F370 L321 REXUM M872 BDB Y214 RAPMA DCT KUVSO DCT KATIT DCT PEKEM M628 RIGIL G783 ELUDA/N0502F350 G783 ASPED Q308 KIPOK Q568 IMPED |
| Aircraft | B77W/H-SDE1E2E3FGHIJ2J3J4J5M1RWXY/LB1D1 |
Departure
| Time | 2026-04-26 09:39 |
|---|---|
| Airport | Edinburgh Airport (EGPH) |
Arrival
| Time | N/A |
|---|---|
| Airport | Dubai International Airport (OMDB) |
| Time | Latitude | Longitude | Altitude | Speed | Heading |
|---|---|---|---|---|---|
| 2026-04-26 08:51 | 55.94821 | -3.35762 | 118 ft | 0 kts | 208° |
| 2026-04-26 09:30 | 55.94834 | -3.35748 | 116 ft | 4 kts | 216° |
| 2026-04-26 09:30 | 55.94854 | -3.35716 | 116 ft | 4 kts | 237° |
| 2026-04-26 09:30 | 55.94864 | -3.35673 | 116 ft | 4 kts | 266° |
| 2026-04-26 09:30 | 55.94861 | -3.35628 | 116 ft | 4 kts | 295° |
| 2026-04-26 09:31 | 55.94857 | -3.35615 | 116 ft | 0 kts | 298° |
| 2026-04-26 09:33 | 55.94866 | -3.35642 | 117 ft | 7 kts | 298° |
| 2026-04-26 09:33 | 55.94896 | -3.35740 | 116 ft | 11 kts | 298° |
| 2026-04-26 09:34 | 55.94954 | -3.35837 | 119 ft | 13 kts | 348° |
| 2026-04-26 09:34 | 55.95044 | -3.35815 | 117 ft | 10 kts | 13° |
| 2026-04-26 09:34 | 55.95109 | -3.35866 | 117 ft | 12 kts | 316° |
| 2026-04-26 09:34 | 55.95172 | -3.35955 | 117 ft | 10 kts | 329° |
| 2026-04-26 09:35 | 55.95244 | -3.35940 | 117 ft | 16 kts | 26° |
| 2026-04-26 09:35 | 55.95300 | -3.35801 | 117 ft | 22 kts | 60° |
| 2026-04-26 09:35 | 55.95365 | -3.35603 | 118 ft | 9 kts | 59° |
| 2026-04-26 09:35 | 55.95399 | -3.35503 | 119 ft | 9 kts | 59° |
| 2026-04-26 09:36 | 55.95446 | -3.35427 | 117 ft | 10 kts | 17° |
| 2026-04-26 09:36 | 55.95477 | -3.35435 | 116 ft | 0 kts | 340° |
| 2026-04-26 09:37 | 55.95483 | -3.35440 | 117 ft | 4 kts | 335° |
| 2026-04-26 09:37 | 55.95532 | -3.35486 | 117 ft | 11 kts | 326° |
| 2026-04-26 09:37 | 55.95558 | -3.35575 | 114 ft | 5 kts | 258° |
| 2026-04-26 09:38 | 55.95548 | -3.35617 | 116 ft | 0 kts | 235° |
| 2026-04-26 09:38 | 55.95465 | -3.35874 | 113 ft | 70 kts | 238° |
| 2026-04-26 09:39 | 55.95025 | -3.37169 | 113 ft | 172 kts | 239° |
| 2026-04-26 09:39 | 55.94324 | -3.39309 | 776 ft | 211 kts | 239° |
| 2026-04-26 09:39 | 55.93587 | -3.41472 | 2348 ft | 204 kts | 237° |
| 2026-04-26 09:39 | 55.92800 | -3.43723 | 2837 ft | 226 kts | 237° |
| 2026-04-26 09:40 | 55.91945 | -3.46165 | 3475 ft | 236 kts | 237° |
| 2026-04-26 09:40 | 55.91067 | -3.48668 | 4177 ft | 246 kts | 238° |
| 2026-04-26 09:40 | 55.90158 | -3.51305 | 4981 ft | 254 kts | 239° |
| 2026-04-26 09:40 | 55.89262 | -3.54050 | 5828 ft | 257 kts | 240° |
| 2026-04-26 09:41 | 55.88342 | -3.56782 | 6769 ft | 256 kts | 233° |
| 2026-04-26 09:41 | 55.86976 | -3.58838 | 7487 ft | 263 kts | 205° |
| 2026-04-26 09:41 | 55.85180 | -3.59474 | 8343 ft | 269 kts | 178° |
| 2026-04-26 09:41 | 55.83357 | -3.58608 | 9220 ft | 275 kts | 159° |
| 2026-04-26 09:42 | 55.81624 | -3.57074 | 9959 ft | 283 kts | 155° |
| 2026-04-26 09:42 | 55.79876 | -3.55372 | 10688 ft | 286 kts | 154° |
| 2026-04-26 09:42 | 55.78130 | -3.53654 | 11520 ft | 287 kts | 154° |
| 2026-04-26 09:42 | 55.76368 | -3.51916 | 12168 ft | 297 kts | 154° |
| 2026-04-26 09:43 | 55.74475 | -3.50059 | 12369 ft | 323 kts | 154° |
| 2026-04-26 09:43 | 55.72472 | -3.48106 | 12824 ft | 339 kts | 154° |
| 2026-04-26 09:43 | 55.70376 | -3.46066 | 13524 ft | 348 kts | 154° |
| 2026-04-26 09:43 | 55.68234 | -3.43983 | 14311 ft | 354 kts | 154° |
| 2026-04-26 09:44 | 55.66063 | -3.41873 | 15105 ft | 357 kts | 154° |
| 2026-04-26 09:44 | 55.63879 | -3.39744 | 15923 ft | 360 kts | 154° |
| 2026-04-26 09:44 | 55.61670 | -3.37584 | 16697 ft | 365 kts | 154° |
| 2026-04-26 09:44 | 55.59434 | -3.35391 | 17464 ft | 370 kts | 154° |
| 2026-04-26 09:45 | 55.57163 | -3.33154 | 18154 ft | 378 kts | 154° |
| 2026-04-26 09:45 | 55.54843 | -3.30872 | 18847 ft | 384 kts | 154° |
| 2026-04-26 09:45 | 55.52497 | -3.28563 | 19574 ft | 387 kts | 154° |
| 2026-04-26 09:45 | 55.50147 | -3.26249 | 20009 ft | 400 kts | 154° |
| 2026-04-26 09:46 | 55.47664 | -3.23778 | 20126 ft | 419 kts | 151° |
| 2026-04-26 09:46 | 55.45281 | -3.20657 | 20508 ft | 435 kts | 140° |
| 2026-04-26 09:46 | 55.43177 | -3.16704 | 21043 ft | 446 kts | 130° |
| 2026-04-26 09:46 | 55.41433 | -3.12137 | 21693 ft | 453 kts | 123° |
| 2026-04-26 09:47 | 55.39876 | -3.07290 | 22387 ft | 457 kts | 120° |
| 2026-04-26 09:47 | 55.38370 | -3.02341 | 23028 ft | 461 kts | 120° |
| 2026-04-26 09:47 | 55.36875 | -2.97321 | 23613 ft | 466 kts | 119° |
| 2026-04-26 09:47 | 55.35891 | -2.93953 | 23976 ft | 469 kts | 119° |
| 2026-04-26 09:48 | 55.33898 | -2.87050 | 24629 ft | 475 kts | 118° |
| 2026-04-26 09:48 | 55.32400 | -2.81850 | 25132 ft | 479 kts | 119° |
| 2026-04-26 09:48 | 55.30886 | -2.76608 | 25622 ft | 483 kts | 119° |
| 2026-04-26 09:48 | 55.29354 | -2.71329 | 26075 ft | 488 kts | 119° |
| 2026-04-26 09:49 | 55.27800 | -2.65999 | 26535 ft | 491 kts | 119° |